Time;durP1;ratioP1;P1;durP2;ratioP2;P2;SDS_P1;SDS_P2;PMS_P1;PMS_P2;Temp;Humidity;BMP_temperature;BMP_pressure;BME280_temperature;BME280_humidity;BME280_pressure;Samples;Min_cycle;Max_cycle;Signal;HPM_P1;HPM_P2
2021/10/30 00:00:23;;;;;;;12.00;7.57;;;;;;;9.54;100.00;100180.31;7392331;19;20477;-44
2021/10/30 00:02:55;;;;;;;9.47;6.77;;;;;;;9.40;100.00;100178.94;7399178;19;20455;-48
2021/10/30 00:05:24;;;;;;;12.00;7.20;;;;;;;9.47;100.00;100185.22;7392212;19;20407;-46
2021/10/30 00:07:54;;;;;;;12.80;7.63;;;;;;;9.52;100.00;100183.66;7397873;19;20387;-46
2021/10/30 00:10:24;;;;;;;11.90;6.63;;;;;;;9.76;100.00;100182.81;7393340;19;20507;-45
2021/10/30 00:12:53;;;;;;;11.60;7.90;;;;;;;9.61;100.00;100185.69;7398788;19;20460;-46
2021/10/30 00:15:23;;;;;;;14.60;6.40;;;;;;;9.48;100.00;100176.66;7391942;19;21119;-44
2021/10/30 00:17:55;;;;;;;12.00;7.30;;;;;;;9.68;100.00;100177.38;7398503;19;20384;-47
2021/10/30 00:20:24;;;;;;;14.07;7.03;;;;;;;10.06;100.00;100175.25;7390656;19;20483;-44
2021/10/30 00:22:54;;;;;;;10.80;6.90;;;;;;;10.39;100.00;100171.22;7398458;19;20407;-47
2021/10/30 00:25:23;;;;;;;9.23;6.80;;;;;;;10.44;100.00;100171.38;7385860;19;20438;-44
2021/10/30 00:27:53;;;;;;;11.93;7.80;;;;;;;10.60;100.00;100173.66;7395742;19;20463;-47
2021/10/30 00:30:22;;;;;;;11.30;6.93;;;;;;;10.16;100.00;100191.06;7386013;19;20434;-47
2021/10/30 00:32:54;;;;;;;9.50;6.50;;;;;;;9.71;100.00;100191.22;7394223;19;20398;-45
2021/10/30 00:35:24;;;;;;;11.13;6.90;;;;;;;9.59;100.00;100189.09;7387599;19;20423;-45
2021/10/30 00:37:53;;;;;;;9.93;6.23;;;;;;;9.44;100.00;100206.56;7394980;19;20392;-47
2021/10/30 00:40:23;;;;;;;14.27;7.33;;;;;;;9.33;100.00;100208.72;7388827;19;20869;-45
2021/10/30 00:42:52;;;;;;;12.83;7.70;;;;;;;9.33;100.00;100211.28;7395050;19;20398;-45
2021/10/30 00:45:22;;;;;;;12.10;6.17;;;;;;;9.34;100.00;100207.03;7387700;19;20437;-44
2021/10/30 00:47:51;;;;;;;15.53;6.47;;;;;;;9.28;100.00;100213.69;7394731;19;20387;-46
2021/10/30 00:50:24;;;;;;;11.33;6.30;;;;;;;9.39;100.00;100215.81;7389821;19;20502;-47
2021/10/30 00:52:55;;;;;;;14.20;7.10;;;;;;;9.31;100.00;100207.78;7402814;19;20398;-48
2021/10/30 00:55:26;;;;;;;12.03;6.90;;;;;;;9.23;100.00;100215.22;7395179;19;20438;-44
2021/10/30 00:57:57;;;;;;;17.63;6.83;;;;;;;9.46;100.00;100212.66;7402470;19;20400;-45
2021/10/30 01:00:27;;;;;;;11.60;7.00;;;;;;;9.40;100.00;100204.69;7394225;19;20443;-46
2021/10/30 01:02:57;;;;;;;9.90;6.90;;;;;;;9.37;100.00;100207.13;7404540;19;20420;-45
2021/10/30 01:05:30;;;;;;;11.30;6.97;;;;;;;9.29;100.00;100205.16;7395348;19;20419;-45
2021/10/30 01:07:59;;;;;;;9.73;6.40;;;;;;;9.41;100.00;100198.72;7401524;19;20471;-47
2021/10/30 01:10:29;;;;;;;11.93;6.70;;;;;;;9.48;100.00;100205.00;7395952;19;20449;-49
2021/10/30 01:12:58;;;;;;;10.63;6.50;;;;;;;9.39;100.00;100203.78;7402931;19;20468;-49
2021/10/30 01:15:28;;;;;;;10.80;6.60;;;;;;;9.38;100.00;100198.63;7395626;19;20419;-49
2021/10/30 01:17:57;;;;;;;10.43;6.00;;;;;;;9.26;100.00;100199.00;7402746;19;20447;-50
2021/10/30 01:20:29;;;;;;;11.07;6.80;;;;;;;9.25;100.00;100203.28;7393226;19;20443;-45
2021/10/30 01:22:59;;;;;;;9.30;6.27;;;;;;;9.28;100.00;100200.81;7402078;19;20391;-50
2021/10/30 01:25:29;;;;;;;16.00;7.70;;;;;;;9.27;100.00;100198.19;7401262;19;20451;-50
2021/10/30 01:28:02;;;;;;;8.43;6.10;;;;;;;9.26;100.00;100205.03;7402124;19;20721;-47
2021/10/30 01:30:31;;;;;;;9.03;6.43;;;;;;;9.20;100.00;100215.09;7394024;19;20944;-44
2021/10/30 01:33:03;;;;;;;9.73;6.60;;;;;;;9.21;100.00;100215.97;7405518;19;20415;-51
2021/10/30 01:35:38;;;;;;;9.10;6.17;;;;;;;9.17;100.00;100225.28;7384961;19;20407;-47
2021/10/30 01:38:08;;;;;;;8.60;6.17;;;;;;;9.17;100.00;100208.16;7403830;19;20727;-46
2021/10/30 01:40:41;;;;;;;11.00;6.20;;;;;;;9.18;100.00;100207.31;7389656;19;20907;-47
2021/10/30 01:43:11;;;;;;;10.87;7.30;;;;;;;9.18;100.00;100199.59;7403987;19;20454;-48
2021/10/30 01:45:43;;;;;;;12.73;6.90;;;;;;;9.17;100.00;100202.09;7364253;19;20398;-51
2021/10/30 01:48:13;;;;;;;18.50;7.33;;;;;;;9.18;100.00;100202.16;7402753;19;20384;-53
2021/10/30 01:50:50;;;;;;;10.50;6.33;;;;;;;9.17;100.00;100205.56;7394560;19;20877;-44
2021/10/30 01:53:19;;;;;;;11.03;7.20;;;;;;;9.18;100.00;100202.16;7403563;19;20400;-44
2021/10/30 01:55:49;;;;;;;16.07;8.10;;;;;;;9.20;100.00;100202.25;7402229;19;20494;-43
2021/10/30 01:58:19;;;;;;;12.57;7.37;;;;;;;9.24;100.00;100196.41;7403061;19;20394;-48
2021/10/30 02:00:50;;;;;;;11.50;7.10;;;;;;;9.22;100.00;100198.00;7393561;19;20512;-48
2021/10/30 02:03:20;;;;;;;10.17;6.40;;;;;;;9.19;100.00;100192.78;7403284;19;20387;-46
2021/10/30 02:05:52;;;;;;;10.77;6.83;;;;;;;9.17;100.00;100194.38;7395617;19;20419;-43
2021/10/30 02:52:22;;;;;;;12.40;7.57;;;;;;;9.01;100.00;100173.22;7372674;19;20445;-52
2021/10/30 02:55:23;;;;;;;12.13;8.30;;;;;;;9.06;100.00;100165.66;7391867;19;20423;-56
2021/10/30 03:18:45;;;;;;;14.63;7.40;;;;;;;8.85;100.00;100152.84;7398049;19;20407;-56
2021/10/30 03:24:51;;;;;;;13.90;8.70;;;;;;;8.81;100.00;100162.13;7395954;19;20402;-55
2021/10/30 03:30:48;;;;;;;14.27;7.50;;;;;;;8.81;100.00;100158.72;7371598;19;20434;-56
2021/10/30 03:33:35;;;;;;;12.30;7.50;;;;;;;8.73;100.00;100160.97;7401955;19;20407;-55
2021/10/30 03:36:39;;;;;;;;;;;;;;;;;;;;;
2021/10/30 03:44:04;;;;;;;13.63;7.50;;;;;;;8.57;100.00;100155.19;7395670;19;20862;-54
2021/10/30 03:47:29;;;;;;;12.30;7.27;;;;;;;8.59;100.00;100157.84;7374181;19;20826;-55
2021/10/30 03:50:26;;;;;;;14.17;7.90;;;;;;;8.56;100.00;100145.72;7391169;19;20810;-53
2021/10/30 04:00:36;;;;;;;11.80;8.07;;;;;;;8.40;100.00;100149.34;7392567;19;20438;-53
2021/10/30 04:03:57;;;;;;;13.60;7.90;;;;;;;8.38;100.00;100148.41;7393847;19;20396;-57
2021/10/30 04:06:32;;;;;;;17.93;7.70;;;;;;;8.32;100.00;100154.16;7372557;19;20444;-56
2021/10/30 04:12:49;;;;;;;13.50;7.63;;;;;;;8.38;100.00;100153.56;7376559;19;20423;-51
2021/10/30 04:15:33;;;;;;;11.87;7.83;;;;;;;8.31;100.00;100146.41;7388964;19;20760;-54
2021/10/30 04:18:45;;;;;;;10.07;6.90;;;;;;;8.28;100.00;100151.41;7397534;19;20407;-53
2021/10/30 04:22:11;;;;;;;11.03;7.10;;;;;;;8.23;100.00;100146.97;7391601;19;20449;-54
2021/10/30 04:25:22;;;;;;;11.27;7.60;;;;;;;8.29;100.00;100142.88;7396350;19;20423;-52
2021/10/30 04:28:33;;;;;;;14.33;7.67;;;;;;;8.22;100.00;100141.75;7404794;19;20662;-58
2021/10/30 04:31:35;;;;;;;13.17;8.40;;;;;;;8.23;100.00;100144.41;7397030;19;20532;-57
2021/10/30 04:34:23;;;;;;;11.60;7.37;;;;;;;8.20;100.00;100151.97;7404967;19;20862;-57
2021/10/30 04:41:41;;;;;;;11.40;7.80;;;;;;;8.17;100.00;100135.53;7396917;19;20427;-53
2021/10/30 04:51:45;;;;;;;21.40;14.13;;;;;;;8.79;100.00;100140.63;7397021;19;20395;-56
2021/10/30 09:48:53;;;;;;;9.77;5.67;;;;;;;11.95;100.00;100111.22;7395498;19;20469;-51
2021/10/30 09:51:30;;;;;;;10.50;5.00;;;;;;;11.98;100.00;100116.44;7379726;19;20431;-53
2021/10/30 09:54:00;;;;;;;10.80;5.20;;;;;;;11.93;100.00;100108.59;7399533;19;20406;-48
2021/10/30 09:56:41;;;;;;;8.83;4.93;;;;;;;12.08;100.00;100107.25;7388646;19;20515;-48
2021/10/30 09:59:12;;;;;;;10.10;5.13;;;;;;;12.03;100.00;100120.03;7400696;19;20479;-47
2021/10/30 10:01:42;;;;;;;7.40;4.97;;;;;;;12.07;100.00;100115.84;7395668;19;20403;-45
2021/10/30 10:04:15;;;;;;;7.17;4.53;;;;;;;12.09;100.00;100111.59;7398508;19;20676;-46
2021/10/30 10:06:45;;;;;;;10.83;5.50;;;;;;;12.17;100.00;100106.63;7392128;19;20543;-50
2021/10/30 10:09:15;;;;;;;8.83;3.80;;;;;;;12.34;100.00;100101.84;7398392;19;20408;-52
2021/10/30 10:11:46;;;;;;;7.63;5.20;;;;;;;12.40;100.00;100099.41;7395348;19;20475;-48
2021/10/30 10:14:17;;;;;;;5.83;4.03;;;;;;;12.45;100.00;100113.34;7390019;19;20439;-51
2021/10/30 10:16:47;;;;;;;6.90;4.57;;;;;;;12.50;100.00;100111.72;7398736;19;20661;-47
2021/10/30 10:19:20;;;;;;;11.97;4.77;;;;;;;12.56;100.00;100111.88;7391097;19;20391;-46
2021/10/30 10:21:50;;;;;;;6.90;4.63;;;;;;;12.63;100.00;100102.56;7395453;19;20419;-47
2021/10/30 10:24:23;;;;;;;10.63;5.00;;;;;;;12.76;100.00;100103.69;7394586;19;20398;-46
2021/10/30 10:26:54;;;;;;;8.23;4.60;;;;;;;12.86;100.00;100093.56;7397682;19;20387;-47
2021/10/30 10:29:32;;;;;;;10.70;5.00;;;;;;;12.99;100.00;100094.66;7390862;19;20402;-45
2021/10/30 10:32:03;;;;;;;8.87;4.80;;;;;;;13.12;100.00;100088.91;7396750;19;20683;-46
2021/10/30 10:34:36;;;;;;;9.63;5.43;;;;;;;13.26;100.00;100080.53;7390265;19;20376;-48
2021/10/30 10:37:22;;;;;;;15.83;4.90;;;;;;;13.47;100.00;100077.53;7397311;19;20471;-46
2021/10/30 10:39:54;;;;;;;7.07;4.40;;;;;;;13.50;100.00;100077.59;7390277;19;20486;-46
2021/10/30 10:42:42;;;;;;;10.03;5.47;;;;;;;13.38;100.00;100067.81;7398553;19;20847;-46
2021/10/30 10:45:14;;;;;;;7.57;4.93;;;;;;;13.40;100.00;100065.28;7390936;19;20498;-49
2021/10/30 10:48:03;;;;;;;8.93;5.07;;;;;;;13.49;100.00;100061.16;7396641;19;20451;-48
2021/10/30 10:50:46;;;;;;;14.60;5.60;;;;;;;13.43;100.00;100065.34;7389968;19;20423;-46
2021/10/30 10:53:21;;;;;;;9.13;5.97;;;;;;;13.41;100.00;100060.13;7397785;19;20447;-52
2021/10/30 10:56:18;;;;;;;8.70;5.90;;;;;;;13.41;100.00;100052.34;7394256;19;20407;-47
2021/10/30 10:59:16;;;;;;;10.90;5.60;;;;;;;13.33;100.00;100039.25;7398321;19;20654;-49
2021/10/30 11:02:21;;;;;;;7.30;5.00;;;;;;;13.35;100.00;100036.69;7395376;19;20411;-48
2021/10/30 11:05:26;;;;;;;7.53;5.37;;;;;;;13.42;100.00;100038.56;7391450;19;20421;-48
2021/10/30 11:08:36;;;;;;;11.47;6.50;;;;;;;13.64;100.00;100031.19;7398361;19;20379;-47
2021/10/30 11:11:14;;;;;;;14.10;5.50;;;;;;;13.64;100.00;100016.50;7393198;19;20498;-47
2021/10/30 11:14:06;;;;;;;9.00;5.27;;;;;;;13.64;100.00;100021.69;7397550;19;20456;-47
2021/10/30 11:16:41;;;;;;;10.00;5.07;;;;;;;13.73;100.00;100010.63;7390950;19;20434;-48
2021/10/30 11:19:21;;;;;;;12.00;5.17;;;;;;;13.70;100.00;100001.91;7400706;19;20403;-47
2021/10/30 11:21:53;;;;;;;9.80;5.10;;;;;;;13.67;100.00;99988.91;7397837;19;20467;-49
2021/10/30 11:24:27;;;;;;;12.80;5.10;;;;;;;13.64;100.00;99990.59;7391495;19;20719;-47
2021/10/30 11:27:07;;;;;;;6.87;4.60;;;;;;;13.72;100.00;99979.47;7397679;19;20443;-49
2021/10/30 11:29:49;;;;;;;10.43;5.10;;;;;;;13.71;100.00;99976.03;7392536;19;20467;-49
2021/10/30 11:32:19;;;;;;;11.00;5.60;;;;;;;13.64;100.00;99977.63;7397938;19;20438;-48
2021/10/30 11:34:55;;;;;;;9.10;5.23;;;;;;;13.69;100.00;99975.13;7389784;19;20411;-48
2021/10/30 11:37:25;;;;;;;11.20;5.57;;;;;;;13.77;100.00;99968.34;7401761;19;20391;-50
2021/10/30 11:39:57;;;;;;;11.73;5.70;;;;;;;13.84;100.00;99958.94;7395129;19;21084;-47
2021/10/30 11:42:26;;;;;;;9.67;4.50;;;;;;;13.90;100.00;99947.81;7405272;19;20439;-50
2021/10/30 11:44:59;;;;;;;7.40;4.53;;;;;;;13.87;100.00;99946.03;7397750;19;20482;-47
2021/10/30 11:47:30;;;;;;;8.80;4.83;;;;;;;13.81;100.00;99935.56;7404821;19;20452;-49
2021/10/30 11:50:01;;;;;;;8.13;5.27;;;;;;;13.80;100.00;99926.06;7396610;19;20444;-49
2021/10/30 11:52:30;;;;;;;11.80;5.90;;;;;;;13.73;100.00;99921.59;7405131;19;20460;-50
2021/10/30 11:55:03;;;;;;;8.43;5.10;;;;;;;13.67;100.00;99919.78;7396758;19;20471;-50
2021/10/30 11:57:33;;;;;;;15.80;5.90;;;;;;;13.69;100.00;99912.06;7404837;19;20701;-48
2021/10/30 12:00:03;;;;;;;7.90;5.73;;;;;;;13.69;100.00;99907.72;7396081;19;20429;-50
2021/10/30 12:02:32;;;;;;;8.50;5.53;;;;;;;13.68;100.00;99895.63;7407827;19;20408;-49
2021/10/30 12:05:12;;;;;;;11.60;6.80;;;;;;;13.66;100.00;99899.03;7397052;19;20443;-48
2021/10/30 12:07:47;;;;;;;14.53;9.87;;;;;;;13.60;100.00;99892.91;7404278;19;20391;-51
2021/10/30 12:10:23;;;;;;;14.73;8.10;;;;;;;13.68;100.00;99887.00;7390023;19;20479;-48
2021/10/30 12:12:55;;;;;;;41.20;23.97;;;;;;;13.77;100.00;99879.34;7403831;19;20881;-48
2021/10/30 12:15:24;;;;;;;31.43;17.90;;;;;;;13.82;100.00;99875.09;7395898;19;20483;-52
2021/10/30 12:17:54;;;;;;;46.17;27.57;;;;;;;13.77;100.00;99874.16;7403593;19;20447;-55
2021/10/30 12:20:23;;;;;;;19.27;10.33;;;;;;;13.54;100.00;99871.22;7395552;19;20503;-53
2021/10/30 12:22:53;;;;;;;19.30;9.60;;;;;;;13.48;100.00;99869.38;7403165;19;20456;-49
2021/10/30 12:25:30;;;;;;;9.90;7.10;;;;;;;13.53;100.00;99848.75;7396032;19;20491;-52
2021/10/30 12:27:59;;;;;;;12.40;8.17;;;;;;;13.50;100.00;99857.34;7403224;19;20403;-54
2021/10/30 12:30:32;;;;;;;9.67;6.20;;;;;;;13.43;100.00;99863.25;7395090;19;20486;-50
2021/10/30 12:33:10;;;;;;;19.40;11.13;;;;;;;13.40;100.00;99858.88;7403308;19;20412;-49
2021/10/30 12:35:42;;;;;;;9.83;7.03;;;;;;;13.46;100.00;99865.91;7395569;19;20448;-48
2021/10/30 12:38:12;;;;;;;16.60;9.47;;;;;;;13.37;100.00;99854.53;7403290;19;20406;-50
2021/10/30 12:40:47;;;;;;;14.50;8.80;;;;;;;13.33;100.00;99851.88;7397627;19;20407;-51
2021/10/30 12:43:21;;;;;;;24.87;13.30;;;;;;;13.33;100.00;99850.13;7402768;19;20391;-49
2021/10/30 12:45:52;;;;;;;12.27;7.43;;;;;;;13.39;100.00;99851.09;7395099;19;20422;-52
2021/10/30 12:48:23;;;;;;;12.87;7.53;;;;;;;13.32;100.00;99845.81;7402495;19;20399;-54
2021/10/30 12:50:57;;;;;;;13.37;7.43;;;;;;;13.32;100.00;99848.41;7393759;19;20419;-51
2021/10/30 12:53:30;;;;;;;16.00;10.20;;;;;;;13.30;100.00;99844.91;7402762;19;20395;-52
2021/10/30 12:56:09;;;;;;;13.20;7.13;;;;;;;13.32;100.00;99842.31;7398644;19;20442;-53
2021/10/30 12:58:41;;;;;;;19.00;12.00;;;;;;;13.28;100.00;99832.78;7402938;19;20765;-54
2021/10/30 13:01:18;;;;;;;18.80;12.03;;;;;;;13.22;100.00;99815.41;7393445;19;20419;-50
2021/10/30 13:03:50;;;;;;;14.73;8.70;;;;;;;13.15;100.00;99821.34;7402004;19;20856;-54
2021/10/30 13:06:22;;;;;;;16.93;9.30;;;;;;;13.15;100.00;99821.34;7394774;19;20419;-51
2021/10/30 13:08:53;;;;;;;13.80;8.20;;;;;;;13.15;100.00;99808.38;7402235;19;20399;-53
2021/10/30 13:11:25;;;;;;;19.90;11.00;;;;;;;13.22;100.00;99807.63;7393250;19;20415;-50
2021/10/30 13:13:56;;;;;;;20.80;11.07;;;;;;;13.14;100.00;99811.84;7401805;19;20390;-54
2021/10/30 13:16:25;;;;;;;26.67;14.80;;;;;;;13.13;100.00;99808.34;7392495;19;20431;-49
2021/10/30 13:18:55;;;;;;;18.77;11.80;;;;;;;13.13;100.00;99815.28;7403425;19;20406;-46
2021/10/30 13:21:26;;;;;;;17.10;10.13;;;;;;;13.16;100.00;99802.34;7392660;19;20425;-46
2021/10/30 13:23:58;;;;;;;39.00;17.33;;;;;;;13.17;100.00;99804.13;7401377;19;20404;-50
2021/10/30 13:26:31;;;;;;;20.53;11.63;;;;;;;13.23;100.00;99801.63;7401718;19;20510;-49
2021/10/30 13:29:01;;;;;;;21.30;13.73;;;;;;;13.32;100.00;99809.53;7403421;19;20396;-49
2021/10/30 13:31:31;;;;;;;76.37;47.10;;;;;;;13.23;100.00;99809.41;7392018;19;20482;-48
2021/10/30 13:34:01;;;;;;;22.97;14.40;;;;;;;13.21;100.00;99800.72;7401068;19;20372;-48
2021/10/30 13:36:30;;;;;;;20.63;14.37;;;;;;;13.29;100.00;99804.31;7395556;19;20443;-51
2021/10/30 13:39:01;;;;;;;22.13;14.50;;;;;;;13.32;100.00;99799.19;7401200;19;20404;-48
2021/10/30 13:41:33;;;;;;;32.90;19.60;;;;;;;13.40;100.00;99801.88;7394606;19;20440;-50
2021/10/30 13:44:06;;;;;;;35.07;16.70;;;;;;;13.40;100.00;99798.41;7400443;19;20431;-48
2021/10/30 13:46:36;;;;;;;55.00;26.70;;;;;;;13.36;100.00;99795.78;7393415;19;20427;-51
2021/10/30 13:49:07;;;;;;;28.73;15.30;;;;;;;13.69;100.00;99785.91;7400479;19;20459;-49
2021/10/30 13:51:37;;;;;;;52.13;26.90;;;;;;;13.62;100.00;99782.38;7391559;19;20423;-48
2021/10/30 13:54:07;;;;;;;16.70;11.30;;;;;;;13.50;100.00;99792.56;7400650;19;20733;-49
2021/10/30 13:56:39;;;;;;;17.53;11.17;;;;;;;13.17;100.00;99793.78;7395235;19;20427;-50
2021/10/30 13:59:21;;;;;;;20.20;12.33;;;;;;;13.02;100.00;99800.44;7398800;19;20400;-49
2021/10/30 14:01:50;;;;;;;21.60;14.00;;;;;;;12.97;100.00;99794.28;7397153;19;20467;-48
2021/10/30 14:04:21;;;;;;;18.50;12.30;;;;;;;12.90;100.00;99802.81;7392353;19;20408;-50
2021/10/30 14:06:50;;;;;;;20.23;12.73;;;;;;;12.76;100.00;99818.97;7399370;19;20394;-47
2021/10/30 14:09:20;;;;;;;23.33;14.23;;;;;;;12.70;100.00;99824.03;7396340;19;20399;-48
2021/10/30 14:11:52;;;;;;;20.40;13.07;;;;;;;12.54;100.00;99833.22;7397532;19;20423;-47
2021/10/30 14:14:23;;;;;;;24.47;15.30;;;;;;;12.54;100.00;99825.47;7392748;19;20447;-48
2021/10/30 14:16:52;;;;;;;24.83;13.80;;;;;;;12.62;100.00;99820.44;7398095;19;20395;-48
2021/10/30 14:19:22;;;;;;;21.20;13.77;;;;;;;12.40;100.00;99836.44;7393580;19;20389;-51
2021/10/30 14:21:51;;;;;;;20.80;13.83;;;;;;;12.53;100.00;99827.22;7396980;19;20441;-52
2021/10/30 14:24:21;;;;;;;22.27;14.60;;;;;;;12.52;100.00;99822.84;7396064;19;20402;-48
2021/10/30 14:26:56;;;;;;;20.97;13.77;;;;;;;12.61;100.00;99816.97;7398907;19;20384;-53
2021/10/30 14:29:26;;;;;;;17.67;12.57;;;;;;;12.50;100.00;99827.13;7393435;19;20399;-48
2021/10/30 14:31:59;;;;;;;21.33;13.70;;;;;;;12.34;100.00;99833.72;7397460;19;20434;-51
2021/10/30 14:34:30;;;;;;;31.63;22.00;;;;;;;12.71;100.00;99812.84;7391423;19;20837;-48
2021/10/30 14:37:00;;;;;;;47.83;29.10;;;;;;;12.81;100.00;99809.59;7396626;19;20396;-48
2021/10/30 14:39:29;;;;;;;58.60;36.43;;;;;;;12.84;100.00;99806.19;7386416;19;20858;-50
2021/10/30 14:42:06;;;;;;;70.20;42.53;;;;;;;12.97;100.00;99815.00;7396848;19;20415;-45
2021/10/30 14:44:43;;;;;;;22.17;14.47;;;;;;;12.83;100.00;99815.66;7391495;19;20694;-50
2021/10/30 14:47:12;;;;;;;84.10;49.10;;;;;;;12.80;100.00;99822.47;7398776;19;20403;-47
2021/10/30 14:49:42;;;;;;;25.83;16.33;;;;;;;12.51;100.00;99840.94;7390257;19;20483;-49
2021/10/30 14:52:12;;;;;;;27.20;16.43;;;;;;;12.26;100.00;99843.91;7396786;19;20714;-50
2021/10/30 14:54:42;;;;;;;61.63;38.53;;;;;;;12.40;100.00;99827.78;7394957;19;20459;-48
2021/10/30 14:57:14;;;;;;;25.43;15.97;;;;;;;12.35;100.00;99837.19;7396765;19;20462;-48
2021/10/30 14:59:44;;;;;;;67.07;27.73;;;;;;;12.46;100.00;99816.69;7390530;19;20408;-52
2021/10/30 15:02:13;;;;;;;38.60;21.47;;;;;;;12.48;100.00;99815.00;7397073;19;20412;-51
2021/10/30 15:04:43;;;;;;;50.60;27.23;;;;;;;12.45;100.00;99813.22;7390987;19;20415;-48
2021/10/30 15:07:14;;;;;;;28.30;18.00;;;;;;;12.17;100.00;99827.34;7398182;19;20452;-47
2021/10/30 15:09:43;;;;;;;34.27;20.33;;;;;;;12.26;100.00;99833.56;7393645;19;20471;-47
2021/10/30 15:12:21;;;;;;;31.87;20.60;;;;;;;12.46;100.00;99824.47;7396612;19;20482;-46
2021/10/30 15:14:51;;;;;;;35.43;20.37;;;;;;;12.72;100.00;99821.50;7392636;19;20423;-46
2021/10/30 15:17:20;;;;;;;34.53;22.07;;;;;;;12.61;100.00;99823.88;7403675;19;20463;-47
2021/10/30 15:19:50;;;;;;;40.00;22.63;;;;;;;12.62;100.00;99820.44;7397767;19;20486;-48
2021/10/30 15:22:19;;;;;;;32.57;19.90;;;;;;;12.33;100.00;99828.50;7402444;19;20422;-50
2021/10/30 15:24:49;;;;;;;32.67;21.00;;;;;;;12.27;100.00;99818.94;7400839;19;20421;-53
2021/10/30 15:27:21;;;;;;;29.53;20.83;;;;;;;12.22;100.00;99820.56;7405290;19;20463;-53
2021/10/30 15:29:51;;;;;;;28.97;19.70;;;;;;;12.00;100.00;99814.91;7396355;19;20530;-46
2021/10/30 15:32:21;;;;;;;36.73;24.00;;;;;;;11.86;100.00;99814.63;7401829;19;20514;-49
2021/10/30 15:34:53;;;;;;;60.60;35.00;;;;;;;11.92;100.00;99817.34;7397554;19;20457;-47
2021/10/30 15:37:24;;;;;;;55.03;32.27;;;;;;;11.97;100.00;99822.59;7406472;19;20716;-47
2021/10/30 15:39:55;;;;;;;125.63;73.07;;;;;;;12.04;100.00;99808.13;7393464;19;20503;-48
2021/10/30 15:42:27;;;;;;;104.50;60.53;;;;;;;12.05;100.00;99802.13;7404815;19;20837;-50
2021/10/30 15:44:57;;;;;;;50.00;32.43;;;;;;;12.14;100.00;99803.16;7397637;19;20407;-47
2021/10/30 15:47:26;;;;;;;86.63;52.03;;;;;;;12.24;100.00;99803.34;7405279;19;20471;-51
2021/10/30 15:49:56;;;;;;;44.40;28.57;;;;;;;12.21;100.00;99787.78;7398068;19;20414;-50
2021/10/30 15:52:25;;;;;;;47.70;28.30;;;;;;;12.14;100.00;99789.34;7404533;19;20912;-48
2021/10/30 15:54:55;;;;;;;45.27;27.53;;;;;;;11.92;100.00;99790.59;7397651;19;20422;-49
2021/10/30 15:57:24;;;;;;;93.47;56.60;;;;;;;12.30;100.00;99782.78;7403066;19;20390;-46
2021/10/30 15:59:56;;;;;;;33.57;22.47;;;;;;;12.15;100.00;99791.09;7396620;19;20502;-47
2021/10/30 16:02:26;;;;;;;46.90;28.43;;;;;;;11.81;100.00;99793.84;7404799;19;20634;-49
2021/10/30 16:04:55;;;;;;;47.83;32.30;;;;;;;11.91;100.00;99784.59;7400210;19;20411;-49
2021/10/30 16:07:25;;;;;;;35.83;23.30;;;;;;;11.68;100.00;99777.19;7409233;19;20402;-48
2021/10/30 16:09:54;;;;;;;36.03;22.83;;;;;;;11.52;100.00;99781.16;7396422;19;20423;-46
2021/10/30 16:12:24;;;;;;;36.63;23.90;;;;;;;11.43;100.00;99786.13;7403679;19;20400;-49
2021/10/30 16:14:56;;;;;;;38.23;23.33;;;;;;;11.30;100.00;99785.84;7396330;19;20845;-53
2021/10/30 16:17:27;;;;;;;38.27;23.00;;;;;;;11.32;100.00;99788.44;7402414;19;20388;-49
2021/10/30 16:19:57;;;;;;;37.63;24.07;;;;;;;11.19;100.00;99785.56;7395771;19;20494;-54
2021/10/30 16:22:26;;;;;;;39.47;25.37;;;;;;;11.16;100.00;99782.94;7403550;19;20392;-52
2021/10/30 16:24:59;;;;;;;40.83;24.00;;;;;;;11.23;100.00;99775.34;7396082;19;20423;-52
2021/10/30 16:27:29;;;;;;;39.47;25.40;;;;;;;11.07;100.00;99778.41;7402744;19;20412;-52
2021/10/30 16:30:02;;;;;;;41.10;25.40;;;;;;;11.05;100.00;99780.09;7398537;19;20456;-52
2021/10/30 16:32:35;;;;;;;39.10;24.57;;;;;;;11.00;100.00;99791.13;7407811;19;20403;-51
2021/10/30 16:35:06;;;;;;;42.37;26.33;;;;;;;11.02;100.00;99792.91;7399681;19;20774;-51
2021/10/30 16:37:35;;;;;;;40.83;26.53;;;;;;;11.02;100.00;99789.47;7405803;19;20416;-48
2021/10/30 16:40:06;;;;;;;39.90;24.33;;;;;;;10.99;100.00;99774.78;7391111;19;20944;-52
2021/10/30 16:42:36;;;;;;;44.00;26.80;;;;;;;11.02;100.00;99776.56;7406867;19;20395;-51
2021/10/30 16:45:10;;;;;;;41.40;26.40;;;;;;;11.02;100.00;99766.25;7398447;19;20887;-51
2021/10/30 16:47:40;;;;;;;41.70;26.53;;;;;;;10.99;100.00;99769.63;7406927;19;20387;-50
2021/10/30 16:50:11;;;;;;;52.37;29.50;;;;;;;11.04;100.00;99762.00;7398263;19;20432;-48
2021/10/30 16:52:41;;;;;;;42.00;26.23;;;;;;;11.06;100.00;99760.31;7406978;19;20459;-51
2021/10/30 16:55:11;;;;;;;46.70;26.97;;;;;;;11.04;100.00;99752.53;7398885;19;20706;-50
2021/10/30 16:57:40;;;;;;;43.10;26.87;;;;;;;10.98;100.00;99748.94;7405546;19;20416;-49
2021/10/30 17:00:14;;;;;;;43.80;27.03;;;;;;;10.96;100.00;99737.72;7397487;19;20502;-48
2021/10/30 17:02:44;;;;;;;44.40;27.00;;;;;;;10.94;100.00;99740.25;7405960;19;20669;-52
2021/10/30 17:05:13;;;;;;;48.40;28.73;;;;;;;10.92;100.00;99742.78;7398675;19;20458;-47
2021/10/30 17:07:43;;;;;;;47.00;27.90;;;;;;;10.88;100.00;99730.63;7405891;19;20913;-49
2021/10/30 17:10:13;;;;;;;55.00;34.07;;;;;;;10.84;100.00;99720.22;7401303;19;20449;-48
2021/10/30 17:12:43;;;;;;;44.13;28.97;;;;;;;10.84;100.00;99727.94;7404813;19;20421;-47
2021/10/30 17:15:15;;;;;;;56.53;33.53;;;;;;;10.81;100.00;99728.75;7398483;19;20435;-51
2021/10/30 17:17:45;;;;;;;49.13;29.93;;;;;;;10.79;100.00;99733.00;7404773;19;20410;-48
2021/10/30 17:20:14;;;;;;;134.07;94.90;;;;;;;11.21;100.00;99723.66;7397531;19;20442;-49
2021/10/30 17:22:44;;;;;;;69.23;38.17;;;;;;;11.22;100.00;99738.31;7405204;19;20467;-50
2021/10/30 17:25:14;;;;;;;64.87;42.17;;;;;;;11.11;100.00;99739.75;7398817;19;20515;-52
2021/10/30 17:27:44;;;;;;;51.90;33.73;;;;;;;11.21;100.00;99744.31;7404866;19;20406;-47
2021/10/30 17:30:16;;;;;;;49.30;30.30;;;;;;;10.96;100.00;99750.63;7396580;19;20443;-50
2021/10/30 17:32:49;;;;;;;51.77;32.37;;;;;;;10.93;100.00;99749.69;7404564;19;20455;-49
2021/10/30 17:35:19;;;;;;;46.77;30.90;;;;;;;10.81;100.00;99744.22;7397415;19;20451;-48
2021/10/30 17:37:48;;;;;;;49.03;30.97;;;;;;;10.80;100.00;99752.81;7401713;19;20388;-48
2021/10/30 17:40:18;;;;;;;53.03;32.70;;;;;;;10.78;100.00;99751.91;7394877;19;21149;-47
2021/10/30 17:42:47;;;;;;;54.40;31.43;;;;;;;10.70;100.00;99748.25;7401025;19;20387;-50
2021/10/30 17:45:19;;;;;;;50.30;30.10;;;;;;;10.75;100.00;99746.66;7396255;19;20490;-50
2021/10/30 17:47:49;;;;;;;49.83;31.07;;;;;;;10.64;100.00;99742.13;7400927;19;20392;-47
2021/10/30 17:50:18;;;;;;;47.40;31.13;;;;;;;10.71;100.00;99742.28;7392445;19;20446;-48
2021/10/30 17:52:48;;;;;;;44.13;28.40;;;;;;;10.67;100.00;99751.66;7400463;19;20837;-51
2021/10/30 17:55:18;;;;;;;45.63;27.10;;;;;;;10.69;100.00;99752.56;7395257;19;20467;-49
2021/10/30 17:57:47;;;;;;;40.37;26.83;;;;;;;10.65;100.00;99746.44;7400132;19;20390;-47
2021/10/30 18:00:20;;;;;;;42.50;27.40;;;;;;;10.66;100.00;99755.91;7392821;19;20764;-50
2021/10/30 18:02:55;;;;;;;37.13;22.97;;;;;;;10.65;100.00;99758.44;7400393;19;20443;-48
2021/10/30 18:05:26;;;;;;;36.33;24.23;;;;;;;10.67;100.00;99760.25;7393383;19;20427;-48
2021/10/30 18:07:56;;;;;;;37.50;24.33;;;;;;;10.75;100.00;99764.72;7403130;19;20403;-47
2021/10/30 18:10:25;;;;;;;42.20;23.50;;;;;;;10.77;100.00;99755.31;7391645;19;20582;-49
2021/10/30 18:12:55;;;;;;;39.27;22.43;;;;;;;10.71;100.00;99768.06;7400016;19;20470;-46
2021/10/30 18:15:27;;;;;;;34.93;23.10;;;;;;;10.70;100.00;99769.78;7392826;19;20431;-48
2021/10/30 18:17:56;;;;;;;37.00;22.77;;;;;;;10.71;100.00;99768.06;7399288;19;20378;-49